Time;durP1;ratioP1;P1;durP2;ratioP2;P2;SDS_P1;SDS_P2;PMS_P1;PMS_P2;Temp;Humidity;BMP_temperature;BMP_pressure;BME280_temperature;BME280_humidity;BME280_pressure;Samples;Min_cycle;Max_cycle;Signal;HPM_P1;HPM_P2
2022/06/05 00:00:08;;;;;;;33.73;30.35;;;;;;;15.21;91.75;99193.38;2213651;80;20917;-82
2022/06/05 00:03:09;;;;;;;35.92;30.00;;;;;;;15.11;91.72;99187.70;2213693;80;20913;-83
2022/06/05 00:06:09;;;;;;;36.10;32.10;;;;;;;15.11;92.72;99189.45;2213940;80;21375;-82
2022/06/05 00:09:10;;;;;;;33.60;30.05;;;;;;;15.08;92.25;99190.77;2214313;80;21011;-83
2022/06/05 00:12:10;;;;;;;30.52;27.27;;;;;;;15.01;92.37;99191.65;2214544;80;20917;-83
2022/06/05 00:15:10;;;;;;;32.85;29.42;;;;;;;14.95;92.08;99187.27;2214655;80;20996;-83
2022/06/05 00:18:11;;;;;;;32.13;29.12;;;;;;;14.88;92.00;99185.52;2214408;80;21413;-82
2022/06/05 00:21:11;;;;;;;31.87;28.87;;;;;;;14.76;91.59;99181.14;2214381;80;20971;-82
2022/06/05 00:24:12;;;;;;;29.55;26.77;;;;;;;14.68;91.74;99177.59;2214655;80;20901;-83
2022/06/05 00:27:12;;;;;;;30.00;27.05;;;;;;;14.62;91.70;99177.59;2214441;80;21290;-83
2022/06/05 00:30:13;;;;;;;27.65;25.12;;;;;;;14.57;91.90;99184.59;2214404;80;20952;-82
2022/06/05 00:33:13;;;;;;;35.65;32.05;;;;;;;14.52;92.18;99195.09;2214597;80;20983;-83
2022/06/05 00:36:13;;;;;;;37.63;33.88;;;;;;;14.49;93.15;99202.97;2214522;80;20952;-83
2022/06/05 00:39:14;;;;;;;37.93;34.00;;;;;;;14.50;93.83;99209.09;2214138;80;21386;-83
2022/06/05 00:42:16;;;;;;;38.15;34.48;;;;;;;14.45;94.22;99210.41;2214382;80;20964;-82
2022/06/05 00:45:14;;;;;;;40.15;36.00;;;;;;;14.46;94.74;99208.66;2214609;80;20897;-82
2022/06/05 00:48:15;;;;;;;39.00;35.05;;;;;;;14.43;95.16;99213.47;2214315;80;20944;-82
2022/06/05 00:51:15;;;;;;;38.48;34.65;;;;;;;14.40;95.07;99208.17;2214584;80;21292;-82
2022/06/05 00:54:16;;;;;;;32.17;29.07;;;;;;;14.35;94.43;99208.16;2214303;80;21355;-83
2022/06/05 00:57:16;;;;;;;73.33;32.33;;;;;;;14.27;93.47;99210.33;2214315;80;20956;-83
2022/06/05 01:00:16;;;;;;;91.90;33.13;;;;;;;14.17;93.12;99212.48;2214976;80;20908;-83
2022/06/05 01:03:17;;;;;;;33.15;29.95;;;;;;;14.07;93.01;99209.39;2214996;80;20960;-83
2022/06/05 01:06:17;;;;;;;144.40;30.30;;;;;;;13.96;92.78;99215.91;2214711;80;21019;-83
2022/06/05 01:09:18;;;;;;;110.05;28.10;;;;;;;13.90;93.06;99219.38;2214719;80;21011;-83
2022/06/05 01:12:18;;;;;;;73.87;26.48;;;;;;;13.84;93.03;99220.63;2215032;80;20913;-83
2022/06/05 01:15:19;;;;;;;311.12;29.10;;;;;;;13.76;92.84;99226.28;2214778;80;20991;-83
2022/06/05 01:18:19;;;;;;;128.32;26.60;;;;;;;13.71;93.09;99225.38;2214691;80;20920;-83
2022/06/05 01:21:19;;;;;;;28.07;25.12;;;;;;;13.64;92.89;99224.47;2214734;80;20928;-83
2022/06/05 01:24:20;;;;;;;457.00;30.12;;;;;;;13.59;93.22;99226.19;2214777;80;20960;-83
2022/06/05 01:27:20;;;;;;;159.40;28.83;;;;;;;13.55;92.61;99224.85;2214846;80;21446;-83
2022/06/05 01:30:21;;;;;;;58.48;23.67;;;;;;;13.45;92.30;99220.41;2214768;80;21330;-84
2022/06/05 01:33:21;;;;;;;78.90;54.03;;;;;;;13.36;93.56;99210.75;2214711;80;21089;-84
2022/06/05 01:36:21;;;;;;;204.45;121.25;;;;;;;14.32;100.00;99206.84;2214796;80;20889;-84
2022/06/05 01:39:22;;;;;;;49.77;44.83;;;;;;;15.28;100.00;99208.72;2214476;80;21340;-83
2022/06/05 01:42:22;;;;;;;129.42;26.00;;;;;;;15.67;94.27;99214.40;2214910;80;20956;-83
2022/06/05 01:45:23;;;;;;;35.40;26.10;;;;;;;15.24;89.74;99216.17;2214727;80;20971;-82
2022/06/05 01:48:23;;;;;;;36.45;24.77;;;;;;;14.77;88.35;99220.12;2214811;80;21008;-82
2022/06/05 01:51:23;;;;;;;23.95;21.50;;;;;;;14.40;88.11;99223.05;2214602;80;21382;-82
2022/06/05 01:54:24;;;;;;;21.65;19.55;;;;;;;14.13;88.35;99222.09;2214549;80;20964;-82
2022/06/05 01:57:24;;;;;;;25.30;19.12;;;;;;;13.86;87.98;99218.02;2215059;80;20924;-82
2022/06/05 02:00:25;;;;;;;24.57;19.65;;;;;;;13.63;88.24;99220.09;2214441;80;20948;-82
2022/06/05 02:03:26;;;;;;;22.17;20.12;;;;;;;13.48;88.64;99231.80;2214667;80;20940;-83
2022/06/05 02:06:26;;;;;;;35.90;20.35;;;;;;;13.36;89.37;99229.09;2211834;80;20969;-83
2022/06/05 02:09:27;;;;;;;23.83;21.73;;;;;;;13.26;89.27;99232.09;2208063;81;21079;-83
2022/06/05 02:12:27;;;;;;;23.12;20.92;;;;;;;13.17;89.47;99241.63;2208057;81;21364;-83
2022/06/05 02:15:28;;;;;;;25.10;22.75;;;;;;;13.08;89.75;99239.34;2207932;81;20991;-83
2022/06/05 02:18:28;;;;;;;21.77;19.52;;;;;;;13.01;89.77;99245.84;2207957;81;20984;-83
2022/06/05 02:21:28;;;;;;;66.33;23.22;;;;;;;12.97;90.16;99250.58;2207659;81;20921;-83
2022/06/05 02:24:29;;;;;;;43.75;17.23;;;;;;;12.92;90.13;99236.55;2207963;81;21285;-84
2022/06/05 02:27:29;;;;;;;20.45;18.55;;;;;;;12.80;89.50;99243.00;2207896;81;20936;-83
2022/06/05 02:30:30;;;;;;;33.67;29.02;;;;;;;12.67;89.44;99235.02;2207963;81;20981;-84
2022/06/05 02:33:30;;;;;;;23.42;16.90;;;;;;;12.59;89.45;99234.07;2207844;81;21367;-84
2022/06/05 02:36:30;;;;;;;19.25;17.55;;;;;;;12.51;89.81;99237.05;2207951;81;20928;-84
2022/06/05 02:39:31;;;;;;;19.80;18.05;;;;;;;12.53;90.43;99240.56;2208047;81;21071;-83
2022/06/05 02:42:31;;;;;;;21.17;19.00;;;;;;;12.56;90.91;99247.56;2208099;81;20897;-84
2022/06/05 02:45:32;;;;;;;20.17;18.40;;;;;;;12.58;91.09;99251.95;2208068;81;20890;-84
2022/06/05 02:48:32;;;;;;;22.77;20.27;;;;;;;12.54;90.22;99263.69;2207681;81;20925;-84
2022/06/05 02:51:33;;;;;;;21.20;19.30;;;;;;;12.49;90.45;99257.09;2208007;81;20940;-83
2022/06/05 02:54:33;;;;;;;21.90;19.80;;;;;;;12.44;89.83;99255.73;2208144;81;20988;-83
2022/06/05 02:57:33;;;;;;;27.07;19.80;;;;;;;12.37;89.82;99260.46;2208191;81;20937;-84
2022/06/05 03:00:34;;;;;;;27.07;19.17;;;;;;;12.35;90.08;99263.92;2207886;81;20948;-83
2022/06/05 03:03:34;;;;;;;22.30;19.65;;;;;;;12.39;90.46;99268.33;2208007;81;20996;-84
2022/06/05 03:06:35;;;;;;;21.90;19.87;;;;;;;12.43;90.25;99263.58;2210030;80;20983;-83
2022/06/05 03:09:35;;;;;;;20.32;18.52;;;;;;;12.44;90.33;99274.50;2213783;80;20948;-83
2022/06/05 03:12:35;;;;;;;20.05;18.12;;;;;;;12.48;90.41;99274.98;2213346;80;21299;-83
2022/06/05 03:15:36;;;;;;;21.57;19.25;;;;;;;12.55;90.23;99276.80;2213831;80;20983;-83
2022/06/05 03:18:36;;;;;;;19.62;17.92;;;;;;;12.61;90.12;99279.48;2213722;80;20966;-83
2022/06/05 03:21:37;;;;;;;20.10;18.35;;;;;;;12.65;89.97;99269.48;2213981;80;20916;-83
2022/06/05 03:24:37;;;;;;;18.15;16.42;;;;;;;12.74;89.91;99274.81;2213775;80;21313;-83
2022/06/05 03:27:37;;;;;;;20.15;18.25;;;;;;;12.82;89.65;99272.70;2213877;80;20927;-83
2022/06/05 03:30:38;;;;;;;20.82;18.65;;;;;;;12.91;89.74;99274.10;2213723;80;20951;-83
2022/06/05 03:33:38;;;;;;;20.90;18.98;;;;;;;13.00;89.84;99266.33;2213406;80;21360;-84
2022/06/05 03:36:39;;;;;;;19.85;18.07;;;;;;;13.06;89.33;99267.72;2213632;80;20932;-83
2022/06/05 03:39:39;;;;;;;19.40;17.70;;;;;;;13.12;89.51;99268.20;2213783;80;20991;-84
2022/06/05 03:42:39;;;;;;;18.62;16.82;;;;;;;13.26;89.45;99270.53;2213899;80;21287;-82
2022/06/05 03:45:40;;;;;;;22.52;19.87;;;;;;;13.38;89.19;99268.89;2213497;80;20952;-82
2022/06/05 03:48:40;;;;;;;20.45;18.75;;;;;;;13.55;90.02;99275.99;2213744;80;20944;-83
2022/06/05 03:51:41;;;;;;;20.45;18.57;;;;;;;13.72;90.28;99282.22;2213451;80;20985;-83
2022/06/05 03:54:41;;;;;;;21.17;18.95;;;;;;;13.88;89.98;99291.98;2213396;80;21343;-82
2022/06/05 03:57:41;;;;;;;18.70;17.10;;;;;;;14.00;89.64;99297.29;2212595;80;20936;-82
2022/06/05 04:00:42;;;;;;;17.87;16.32;;;;;;;14.14;89.45;99304.36;2213620;80;20940;-84
2022/06/05 04:03:42;;;;;;;17.10;15.40;;;;;;;14.27;88.89;99299.60;2213598;80;21260;-84
2022/06/05 04:06:43;;;;;;;19.12;17.23;;;;;;;14.44;88.74;99303.20;2213470;80;20975;-85
2022/06/05 04:09:43;;;;;;;18.50;16.60;;;;;;;14.63;88.78;99315.97;2214510;80;21034;-84
2022/06/05 04:12:44;;;;;;;16.85;15.40;;;;;;;14.82;89.16;99322.17;2214513;80;20924;-84
2022/06/05 04:15:44;;;;;;;17.90;16.05;;;;;;;14.98;88.83;99317.39;2213863;80;20973;-84
2022/06/05 04:18:44;;;;;;;17.80;15.35;;;;;;;15.14;88.03;99323.11;2213875;80;20983;-84
2022/06/05 04:21:47;;;;;;;18.15;14.60;;;;;;;15.30;87.78;99328.82;2214465;80;21367;-83
2022/06/05 04:24:45;;;;;;;16.95;15.23;;;;;;;15.42;86.47;99327.95;2214423;80;20980;-83
2022/06/05 04:27:46;;;;;;;15.95;14.43;;;;;;;15.52;85.73;99321.80;2214763;80;20960;-83
2022/06/05 04:30:46;;;;;;;16.40;14.68;;;;;;;15.63;85.32;99325.81;2214086;80;20932;-84
2022/06/05 04:33:46;;;;;;;15.13;13.62;;;;;;;15.78;85.12;99323.59;2213425;80;21358;-83
2022/06/05 04:36:47;;;;;;;17.65;14.33;;;;;;;15.87;83.70;99327.09;2212816;80;20988;-82
2022/06/05 04:39:47;;;;;;;16.48;14.75;;;;;;;15.88;83.54;99330.16;2212918;80;20995;-83
2022/06/05 04:42:48;;;;;;;18.27;13.80;;;;;;;15.91;83.39;99323.58;2213780;80;20960;-84
2022/06/05 04:45:48;;;;;;;15.88;14.38;;;;;;;16.00;83.17;99329.70;2215303;80;20932;-82
2022/06/05 04:48:48;;;;;;;14.73;13.25;;;;;;;16.05;83.01;99318.28;2215374;80;20999;-83
2022/06/05 04:51:49;;;;;;;14.68;13.08;;;;;;;16.22;83.06;99311.64;2214841;80;20944;-82
2022/06/05 04:54:49;;;;;;;14.73;13.43;;;;;;;16.31;81.87;99312.05;2215390;80;20964;-82
2022/06/05 04:57:50;;;;;;;16.05;14.28;;;;;;;16.42;81.52;99308.48;2215162;80;20961;-82
2022/06/05 05:00:50;;;;;;;13.62;12.33;;;;;;;16.53;80.97;99308.03;2215741;80;20975;-84
2022/06/05 05:03:50;;;;;;;15.00;13.53;;;;;;;16.67;80.81;99303.16;2215212;80;21007;-83
2022/06/05 05:06:51;;;;;;;14.03;12.63;;;;;;;16.79;79.89;99297.82;2215516;80;20996;-82
2022/06/05 05:09:51;;;;;;;13.58;12.37;;;;;;;16.91;80.11;99296.42;2214378;79;20995;-82
2022/06/05 05:12:52;;;;;;;12.73;11.68;;;;;;;17.07;80.32;99296.75;2213942;80;20932;-82
2022/06/05 05:15:52;;;;;;;14.23;12.88;;;;;;;17.23;78.63;99305.88;2213715;80;20992;-82
2022/06/05 05:18:53;;;;;;;13.40;12.05;;;;;;;17.27;77.78;99314.20;2212920;80;20924;-81
2022/06/05 05:21:53;;;;;;;12.90;11.65;;;;;;;17.31;77.39;99320.76;2212611;80;20960;-81
2022/06/05 05:24:53;;;;;;;15.28;11.63;;;;;;;17.34;76.26;99324.72;2212731;80;21027;-81
2022/06/05 05:27:54;;;;;;;12.18;10.88;;;;;;;17.30;77.02;99323.41;2213375;80;20995;-83
2022/06/05 05:30:54;;;;;;;12.47;11.10;;;;;;;17.46;76.55;99320.66;2212741;80;21377;-82
2022/06/05 05:33:55;;;;;;;13.18;11.10;;;;;;;17.58;75.60;99319.69;2213290;80;21024;-82
2022/06/05 05:36:55;;;;;;;12.50;11.20;;;;;;;17.67;75.49;99317.00;2214111;80;20905;-82
2022/06/05 05:43:14;;;;;;;12.53;10.98;;;;;;;17.78;73.90;99314.25;2213971;80;21028;-83
2022/06/05 05:46:15;;;;;;;16.42;11.85;;;;;;;17.98;73.19;99312.73;2213975;80;20948;-82
2022/06/05 05:49:15;;;;;;;13.30;10.32;;;;;;;18.01;73.83;99316.22;2214296;80;20932;-82
2022/06/05 05:52:15;;;;;;;11.00;9.88;;;;;;;18.19;73.30;99313.81;2213834;80;20916;-81
2022/06/05 05:55:16;;;;;;;12.75;11.45;;;;;;;18.34;72.88;99314.12;2214034;80;21363;-82
2022/06/05 05:58:16;;;;;;;10.95;9.93;;;;;;;18.44;71.96;99316.63;2213412;80;21080;-81
2022/06/05 06:01:17;;;;;;;11.97;10.80;;;;;;;18.61;72.25;99319.09;2214091;80;20975;-81
2022/06/05 06:04:17;;;;;;;11.65;10.43;;;;;;;18.73;71.11;99326.86;2214030;80;20915;-81
2022/06/05 06:07:17;;;;;;;11.57;10.40;;;;;;;18.80;71.44;99322.36;2214113;80;20999;-82
2022/06/05 06:10:18;;;;;;;13.08;9.28;;;;;;;18.94;70.34;99327.02;2213819;80;20979;-81
2022/06/05 06:13:18;;;;;;;17.35;9.75;;;;;;;19.02;70.89;99326.45;2214139;80;20964;-82
2022/06/05 06:16:19;;;;;;;10.60;9.80;;;;;;;19.24;70.66;99320.88;2213618;80;21355;-82
2022/06/05 06:19:19;;;;;;;10.20;9.13;;;;;;;19.37;69.18;99319.33;2213931;80;20929;-82
2022/06/05 06:22:20;;;;;;;12.70;8.38;;;;;;;19.42;69.56;99317.92;2214929;80;20885;-83
2022/06/05 06:25:20;;;;;;;10.48;9.48;;;;;;;19.67;69.38;99322.39;2214527;80;21265;-81
2022/06/05 06:28:20;;;;;;;10.68;9.68;;;;;;;19.76;68.13;99329.30;2214358;80;20913;-83
2022/06/05 06:31:21;;;;;;;9.60;8.65;;;;;;;19.78;67.21;99328.38;2214690;80;20927;-82
2022/06/05 06:34:21;;;;;;;9.50;8.78;;;;;;;19.85;67.50;99329.14;2214816;80;20980;-83
2022/06/05 06:37:21;;;;;;;10.82;8.80;;;;;;;19.99;67.00;99325.83;2213965;80;20897;-82
2022/06/05 06:40:22;;;;;;;9.53;8.70;;;;;;;20.05;66.77;99315.11;2213792;80;20984;-82
2022/06/05 06:43:22;;;;;;;10.40;9.05;;;;;;;20.07;66.25;99315.08;2214153;80;20992;-82
2022/06/05 06:46:23;;;;;;;11.88;9.13;;;;;;;20.13;65.67;99309.21;2214194;80;20920;-82
2022/06/05 06:49:23;;;;;;;10.38;8.60;;;;;;;20.15;65.56;99311.38;2213611;80;21339;-80
2022/06/05 06:52:24;;;;;;;9.55;8.65;;;;;;;20.25;66.00;99304.99;2213823;80;20955;-82
2022/06/05 06:55:24;;;;;;;9.13;8.23;;;;;;;20.49;64.48;99314.71;2214349;80;20968;-81
2022/06/05 06:58:24;;;;;;;12.05;7.92;;;;;;;20.55;64.55;99322.09;2212822;80;20991;-81
2022/06/05 07:01:25;;;;;;;12.25;8.73;;;;;;;20.63;64.79;99317.49;2213649;80;20924;-81
2022/06/05 07:04:25;;;;;;;8.83;8.03;;;;;;;20.72;64.55;99308.92;2213934;80;20931;-80
2022/06/05 07:07:25;;;;;;;8.33;7.60;;;;;;;20.95;65.10;99304.00;2213791;80;21031;-80
2022/06/05 07:10:26;;;;;;;7.92;7.12;;;;;;;21.24;63.84;99299.37;2213618;80;21007;-81
2022/06/05 07:13:26;;;;;;;10.60;7.55;;;;;;;21.35;62.92;99294.67;2213899;80;20987;-81
2022/06/05 07:16:27;;;;;;;7.58;6.87;;;;;;;21.46;63.23;99292.63;2213991;80;20976;-81
2022/06/05 07:19:27;;;;;;;7.40;6.80;;;;;;;21.63;62.34;99289.08;2213796;80;20928;-81
2022/06/05 07:22:28;;;;;;;6.55;5.80;;;;;;;21.89;62.36;99284.89;2214016;80;20900;-81
2022/06/05 07:25:28;;;;;;;6.62;5.50;;;;;;;22.22;61.60;99285.33;2213657;80;20971;-82
2022/06/05 07:28:28;;;;;;;6.60;5.22;;;;;;;22.41;58.05;99284.80;2213736;80;20928;-80
2022/06/05 07:31:29;;;;;;;7.00;5.22;;;;;;;22.50;58.48;99284.53;2213797;80;20937;-81
2022/06/05 07:34:29;;;;;;;5.97;5.28;;;;;;;22.73;58.89;99287.86;2212767;80;21545;-81
2022/06/05 07:37:30;;;;;;;5.45;4.22;;;;;;;23.07;58.13;99292.59;2211586;80;21003;-80
2022/06/05 07:40:30;;;;;;;6.05;4.72;;;;;;;23.18;55.56;99296.23;2212243;80;21004;-81
2022/06/05 07:43:30;;;;;;;6.72;4.72;;;;;;;23.34;55.50;99298.81;2213451;80;20975;-81
2022/06/05 07:46:31;;;;;;;5.28;4.83;;;;;;;23.59;55.72;99297.61;2213128;80;21324;-81
2022/06/05 07:49:31;;;;;;;5.17;4.47;;;;;;;23.75;53.94;99296.62;2212921;80;20999;-82
2022/06/05 07:55:51;;;;;;;4.95;4.20;;;;;;;23.65;52.01;99301.86;2212008;80;21403;-82
2022/06/05 07:58:51;;;;;;;4.83;4.17;;;;;;;23.54;51.19;99304.84;2212110;80;20979;-82
2022/06/05 08:01:52;;;;;;;5.05;3.65;;;;;;;23.68;51.36;99304.42;2212559;80;20948;-82
2022/06/05 08:04:52;;;;;;;5.42;4.15;;;;;;;23.88;49.61;99301.94;2212823;80;20980;-81
2022/06/05 08:07:52;;;;;;;4.78;3.83;;;;;;;23.82;49.41;99303.48;2211711;80;21015;-82
2022/06/05 08:10:53;;;;;;;4.90;3.70;;;;;;;23.68;47.11;99309.28;2208310;79;20996;-82
2022/06/05 08:13:53;;;;;;;6.30;3.42;;;;;;;23.59;49.17;99303.39;2208487;81;21383;-81
2022/06/05 08:16:54;;;;;;;5.58;3.83;;;;;;;23.72;47.89;99304.72;2208625;81;20944;-81
2022/06/05 08:19:54;;;;;;;5.15;3.52;;;;;;;23.87;47.23;99309.98;2208564;81;20956;-82
2022/06/05 08:22:56;;;;;;;4.40;3.70;;;;;;;24.04;47.67;99312.94;2208307;81;21036;-81
2022/06/05 08:25:56;;;;;;;4.03;3.67;;;;;;;24.30;48.31;99308.93;2208490;81;21347;-82
2022/06/05 08:28:56;;;;;;;3.87;3.50;;;;;;;24.43;47.10;99308.88;2208278;81;20929;-80
2022/06/05 08:31:56;;;;;;;4.55;3.02;;;;;;;24.50;44.91;99312.66;2207810;81;20925;-81
2022/06/05 08:34:57;;;;;;;4.00;3.40;;;;;;;24.58;44.88;99311.45;2208310;81;20995;-82
2022/06/05 08:41:29;;;;;;;4.33;3.60;;;;;;;24.66;44.62;99309.36;2207885;81;20969;-82
2022/06/05 08:44:29;;;;;;;4.12;3.17;;;;;;;24.90;45.27;99305.33;2207566;81;21367;-80
2022/06/05 08:47:29;;;;;;;4.35;3.52;;;;;;;24.99;44.97;99315.69;2207927;81;20893;-80
2022/06/05 08:50:29;;;;;;;4.35;3.15;;;;;;;24.97;44.81;99310.41;2208051;81;20960;-80
2022/06/05 08:53:30;;;;;;;5.12;3.20;;;;;;;24.95;44.63;99308.70;2207779;81;21347;-80
2022/06/05 08:56:30;;;;;;;6.47;3.50;;;;;;;25.11;43.24;99309.86;2207654;81;20940;-81
2022/06/05 08:59:31;;;;;;;5.40;3.15;;;;;;;25.29;44.21;99299.80;2207955;81;20932;-80
2022/06/05 09:02:31;;;;;;;5.42;3.40;;;;;;;25.52;43.81;99303.33;2208133;81;20916;-80
2022/06/05 09:05:31;;;;;;;4.50;3.60;;;;;;;25.60;43.97;99302.55;2207883;81;20917;-81
2022/06/05 09:08:32;;;;;;;6.67;3.60;;;;;;;25.78;44.04;99300.92;2211177;80;21025;-81
2022/06/05 09:11:33;;;;;;;3.65;3.20;;;;;;;25.83;41.71;99302.94;2213796;80;21419;-80
2022/06/05 09:14:33;;;;;;;3.50;3.20;;;;;;;25.76;43.57;99296.98;2213690;80;20992;-80
2022/06/05 09:17:33;;;;;;;3.80;3.50;;;;;;;25.68;43.64;99304.45;2213965;80;20912;-79
2022/06/05 09:20:33;;;;;;;4.08;3.50;;;;;;;25.31;42.71;99304.62;2213346;80;20939;-79
2022/06/05 09:23:34;;;;;;;3.25;2.95;;;;;;;25.44;41.19;99308.99;2213798;80;21303;-81
2022/06/05 09:26:34;;;;;;;5.20;3.60;;;;;;;25.35;41.97;99309.37;2213506;80;20952;-81
2022/06/05 09:29:35;;;;;;;4.85;3.27;;;;;;;25.20;42.06;99305.98;2213825;80;20916;-81
2022/06/05 09:32:35;;;;;;;5.08;3.60;;;;;;;25.14;41.94;99300.86;2213369;80;20996;-81
2022/06/05 09:35:36;;;;;;;4.08;3.75;;;;;;;25.18;40.90;99299.37;2213183;80;21386;-80
2022/06/05 09:38:36;;;;;;;3.80;3.30;;;;;;;25.29;42.34;99302.47;2213687;80;20897;-80
2022/06/05 09:41:37;;;;;;;4.60;3.52;;;;;;;25.58;41.58;99303.07;2213384;80;21019;-81
2022/06/05 09:44:37;;;;;;;5.05;3.52;;;;;;;25.53;39.91;99309.95;2213748;80;20937;-81
2022/06/05 09:47:37;;;;;;;3.45;3.15;;;;;;;25.47;41.10;99303.52;2213699;80;20932;-81
2022/06/05 09:50:37;;;;;;;7.75;3.70;;;;;;;25.61;40.78;99308.29;2213615;80;21307;-81
2022/06/05 09:53:38;;;;;;;3.55;3.25;;;;;;;25.61;40.69;99313.17;2213763;80;20943;-81
2022/06/05 09:58:24;;;;;;;3.67;3.40;;;;;;;25.66;41.23;99312.54;2213651;80;20929;-80
2022/06/05 09:59:39;;;;;;;5.28;3.30;;;;;;;25.73;40.77;99309.14;2213205;80;20932;-79
2022/06/05 10:02:39;;;;;;;3.50;3.30;;;;;;;25.93;40.52;99302.94;2213752;80;20960;-82
2022/06/05 10:05:48;;;;;;;5.53;3.20;;;;;;;26.30;39.68;99314.26;2213643;80;20920;-81
2022/06/05 10:08:41;;;;;;;4.53;3.10;;;;;;;26.38;39.92;99301.91;2210784;80;21004;-80
2022/06/05 10:11:40;;;;;;;3.45;3.15;;;;;;;26.57;39.68;99297.45;2207852;81;21012;-81
2022/06/05 10:14:41;;;;;;;4.37;3.27;;;;;;;26.75;38.78;99295.72;2207801;81;20933;-80
2022/06/05 10:17:41;;;;;;;3.87;3.30;;;;;;;26.78;38.65;99294.23;2207960;81;21261;-81
2022/06/05 10:20:41;;;;;;;5.20;3.00;;;;;;;26.98;38.82;99294.70;2208041;81;20924;-80
2022/06/05 10:23:42;;;;;;;5.87;3.10;;;;;;;27.08;39.26;99296.86;2208118;81;20965;-80
2022/06/05 10:26:42;;;;;;;3.55;3.25;;;;;;;27.36;38.91;99292.36;2208068;81;21308;-80
2022/06/05 10:29:43;;;;;;;4.10;3.02;;;;;;;27.28;36.81;99293.21;2207985;81;20913;-80
2022/06/05 10:32:43;;;;;;;3.62;3.33;;;;;;;27.16;38.27;99286.64;2208139;81;20886;-81
2022/06/05 10:35:44;;;;;;;3.77;2.90;;;;;;;27.11;36.18;99285.99;2207776;81;20992;-81
2022/06/05 10:38:44;;;;;;;3.58;3.27;;;;;;;26.45;38.11;99281.48;2207990;81;20960;-80
2022/06/05 10:41:44;;;;;;;7.62;3.62;;;;;;;26.64;38.39;99272.99;2207703;81;21410;-79
2022/06/05 10:44:45;;;;;;;3.22;2.90;;;;;;;26.98;38.10;99274.14;2207963;81;20956;-79
2022/06/05 10:47:45;;;;;;;3.70;2.80;;;;;;;27.26;37.50;99280.36;2207877;81;20933;-80
2022/06/05 10:50:46;;;;;;;5.12;3.50;;;;;;;27.37;36.88;99277.14;2208038;81;20889;-80
2022/06/05 10:53:46;;;;;;;4.80;3.42;;;;;;;27.17;36.34;99285.70;2207796;81;21355;-80
2022/06/05 10:56:46;;;;;;;3.10;2.90;;;;;;;26.99;35.84;99281.70;2207949;81;20969;-81
2022/06/05 10:59:47;;;;;;;4.47;3.40;;;;;;;26.86;36.77;99279.55;2207999;81;20968;-81
2022/06/05 11:02:47;;;;;;;3.80;3.00;;;;;;;27.01;36.42;99275.33;2208059;81;20956;-79
2022/06/05 11:05:48;;;;;;;6.17;3.25;;;;;;;27.13;36.94;99268.03;2207948;81;21284;-80
2022/06/05 11:08:48;;;;;;;5.37;3.30;;;;;;;27.44;36.32;99272.74;2210169;80;20971;-80
2022/06/05 11:15:08;;;;;;;3.12;2.92;;;;;;;26.63;36.85;99266.38;2213752;80;21032;-80
2022/06/05 11:18:08;;;;;;;3.67;3.15;;;;;;;26.76;37.53;99263.98;2213894;80;20959;-80
2022/06/05 11:21:08;;;;;;;3.75;3.37;;;;;;;27.09;36.72;99263.77;2213425;80;20948;-80
2022/06/05 11:24:09;;;;;;;3.50;2.92;;;;;;;27.36;36.29;99252.63;2213655;80;20939;-80
2022/06/05 11:27:10;;;;;;;2.95;2.72;;;;;;;27.54;36.68;99258.40;2213497;80;20937;-80
2022/06/05 11:30:10;;;;;;;2.92;2.72;;;;;;;27.71;36.01;99261.12;2213729;80;21292;-80
2022/06/05 11:33:11;;;;;;;4.62;3.08;;;;;;;27.63;36.44;99252.59;2213667;80;21327;-80
2022/06/05 11:36:12;;;;;;;3.75;3.45;;;;;;;27.62;37.19;99252.20;2213893;80;21002;-80
2022/06/05 11:39:12;;;;;;;5.55;3.30;;;;;;;27.55;36.65;99248.06;2213769;80;21060;-80
2022/06/05 11:42:12;;;;;;;6.00;3.30;;;;;;;26.91;35.43;99249.89;2213536;80;21362;-81
2022/06/05 11:45:12;;;;;;;4.00;3.08;;;;;;;26.87;35.65;99247.80;2213595;80;20916;-80
2022/06/05 11:48:13;;;;;;;4.42;2.77;;;;;;;27.18;35.31;99242.34;2214010;80;20897;-80
2022/06/05 11:51:14;;;;;;;4.55;3.25;;;;;;;27.37;35.88;99239.62;2213689;80;20928;-79
2022/06/05 11:54:14;;;;;;;2.75;2.55;;;;;;;27.57;35.91;99243.49;2213607;80;20948;-80
2022/06/05 11:57:14;;;;;;;3.80;2.92;;;;;;;27.00;35.03;99237.89;2213425;80;21000;-80
2022/06/05 12:00:15;;;;;;;5.42;2.87;;;;;;;26.49;35.91;99240.25;2213513;80;21442;-80
2022/06/05 12:03:15;;;;;;;3.67;3.35;;;;;;;26.37;36.78;99237.27;2213593;80;21326;-79
2022/06/05 12:06:15;;;;;;;3.40;3.10;;;;;;;26.69;35.90;99240.64;2213659;80;20967;-80
2022/06/05 12:09:16;;;;;;;9.35;3.20;;;;;;;26.56;35.67;99232.80;2210578;80;20933;-80
2022/06/05 12:12:17;;;;;;;3.05;2.85;;;;;;;26.25;36.49;99230.64;2207834;81;20988;-79
2022/06/05 12:15:17;;;;;;;2.92;2.70;;;;;;;26.54;36.18;99220.83;2207866;81;20965;-80
2022/06/05 12:18:17;;;;;;;3.27;3.08;;;;;;;26.55;35.57;99222.55;2207766;81;20952;-79
2022/06/05 12:21:18;;;;;;;4.45;2.70;;;;;;;26.49;34.37;99240.72;2207974;81;20881;-78
2022/06/05 12:24:18;;;;;;;3.00;2.80;;;;;;;26.47;34.07;99227.41;2207686;81;21312;-80
2022/06/05 12:27:20;;;;;;;2.90;2.60;;;;;;;26.62;34.14;99220.45;2207807;81;20977;-80
2022/06/05 12:30:20;;;;;;;3.00;2.80;;;;;;;26.39;33.37;99219.34;2207838;81;20921;-80
2022/06/05 12:33:19;;;;;;;2.80;2.60;;;;;;;26.71;33.30;99214.66;2207694;81;20957;-80
2022/06/05 12:36:20;;;;;;;2.85;2.62;;;;;;;27.07;32.23;99212.06;2207587;81;21336;-80
2022/06/05 12:39:22;;;;;;;3.20;2.95;;;;;;;27.45;32.66;99203.91;2207695;81;20929;-80
2022/06/05 12:42:21;;;;;;;3.60;2.40;;;;;;;27.77;31.72;99197.80;2207645;81;21063;-80
2022/06/05 12:45:21;;;;;;;2.55;2.25;;;;;;;27.77;30.61;99204.51;2207816;81;20953;-80
2022/06/05 12:48:21;;;;;;;2.42;2.22;;;;;;;27.78;29.76;99199.53;2207984;81;20925;-81
2022/06/05 12:51:22;;;;;;;3.12;2.35;;;;;;;27.82;30.68;99194.41;2207930;81;20937;-80
2022/06/05 12:54:22;;;;;;;2.45;2.20;;;;;;;27.63;29.98;99188.72;2208134;81;20932;-80
2022/06/05 12:57:22;;;;;;;3.22;2.52;;;;;;;27.78;29.89;99186.13;2208319;81;20917;-80
2022/06/05 13:00:23;;;;;;;2.47;2.35;;;;;;;28.03;29.64;99174.95;2208045;81;20961;-80
2022/06/05 13:03:23;;;;;;;3.00;2.72;;;;;;;27.99;31.08;99179.22;2207877;81;20889;-81
2022/06/05 13:06:25;;;;;;;4.28;2.55;;;;;;;27.94;31.31;99170.08;2207804;81;20976;-80
2022/06/05 13:09:24;;;;;;;2.87;2.67;;;;;;;27.87;30.28;99170.02;2207710;81;20952;-79
2022/06/05 13:12:24;;;;;;;2.98;2.47;;;;;;;27.81;30.17;99169.00;2207771;81;21449;-80
2022/06/05 13:15:25;;;;;;;3.17;2.55;;;;;;;27.84;30.96;99164.34;2207747;81;20964;-81
2022/06/05 13:18:25;;;;;;;4.10;2.50;;;;;;;27.93;30.20;99160.77;2207915;81;20980;-80
2022/06/05 13:21:26;;;;;;;2.72;2.52;;;;;;;28.02;30.85;99158.94;2207868;81;20909;-80
2022/06/05 13:24:26;;;;;;;2.85;2.65;;;;;;;28.11;30.80;99152.59;2207603;81;21332;-79
2022/06/05 13:27:26;;;;;;;3.85;2.87;;;;;;;28.30;30.41;99155.16;2207736;81;20933;-79
2022/06/05 13:30:27;;;;;;;3.15;2.95;;;;;;;28.31;29.97;99166.28;2208075;81;20924;-80
2022/06/05 13:33:27;;;;;;;2.58;2.37;;;;;;;28.05;30.37;99158.77;2207971;81;20945;-79
2022/06/05 13:36:29;;;;;;;2.87;2.42;;;;;;;27.93;30.64;99153.59;2207704;81;21296;-79
2022/06/05 13:39:28;;;;;;;2.98;2.67;;;;;;;28.10;31.54;99151.33;2207661;81;20921;-78
2022/06/05 13:42:29;;;;;;;3.30;2.72;;;;;;;28.43;32.26;99149.49;2207745;80;21043;-80
2022/06/05 13:45:29;;;;;;;4.53;2.62;;;;;;;28.54;30.59;99151.57;2207963;81;20886;-80
2022/06/05 13:48:29;;;;;;;3.30;2.65;;;;;;;28.45;30.88;99148.06;2207803;81;20961;-80
2022/06/05 13:51:30;;;;;;;5.22;3.05;;;;;;;28.37;31.15;99144.94;2207883;81;21288;-80
2022/06/05 13:54:30;;;;;;;3.52;2.72;;;;;;;28.35;31.43;99144.16;2205944;81;21007;-80
2022/06/05 13:57:31;;;;;;;3.12;2.80;;;;;;;28.15;31.08;99142.55;2206835;81;21039;-80
2022/06/05 14:00:31;;;;;;;5.05;3.02;;;;;;;28.06;32.25;99135.88;2207794;81;20940;-80
2022/06/05 14:03:31;;;;;;;4.72;3.15;;;;;;;27.91;31.57;99134.03;2207798;81;21312;-80
2022/06/05 14:06:32;;;;;;;3.27;2.90;;;;;;;27.42;32.41;99134.37;2207725;81;20937;-80
2022/06/05 14:09:32;;;;;;;3.00;2.80;;;;;;;27.59;32.34;99134.34;2210800;80;20977;-81
2022/06/05 14:12:33;;;;;;;3.55;2.72;;;;;;;27.61;32.37;99132.48;2214633;80;21031;-81